Green Bay, Wisconsin
Current Conditions -  °F | °C
As of 6:59 PM on Friday 28 Nov 2014 (Local Time) from KGRB Reporting Station
Light Snow Light Snow  
Wind Chill: 25°   Ceiling: 2500
Heat Index: 25°   Visibility: 2.5mi
Dew Point: 23°   Wind: 3mph
Humidity: 92%   Direction: 160°SSE
Pressure: 29.95"   Gusts: NA
Location:  44.51°N, 88.01°W
Report Text: KGRB 290059Z 16003KT 2 1/2SM -SN BR BKN025 OVC055 M04/M05 A2995 RMK AO2 P0000 T10391050
Loading
Personal Weather Stations






























Interactive Weather Map New forecast layout! Learn more

10-Day Weather Forecast

Advertisements
Track Severe Weather on mobile